createdAt,value
2022-11-10T00:01:20.040Z,98884.66
2022-11-10T00:03:40.521Z,98888.78
2022-11-10T00:06:03.475Z,98886.31
2022-11-10T00:08:23.764Z,98888.25
2022-11-10T00:11:02.144Z,98885.78
2022-11-10T00:13:25.011Z,98895.41
2022-11-10T00:16:03.921Z,98893.22
2022-11-10T00:18:24.215Z,98897.06
2022-11-10T00:20:45.141Z,98896.22
2022-11-10T00:23:05.358Z,98895.97
2022-11-10T00:25:28.273Z,98904.22
2022-11-10T00:28:09.333Z,98894.06
2022-11-10T00:30:29.642Z,98899.00
2022-11-10T00:32:49.949Z,98901.19
2022-11-10T00:35:10.240Z,98913.31
2022-11-10T00:37:30.244Z,98910.00
2022-11-10T00:39:52.650Z,98921.56
2022-11-10T00:42:13.036Z,98912.75
2022-11-10T00:44:33.627Z,98922.09
2022-11-10T00:46:53.612Z,98930.59
2022-11-10T00:49:14.029Z,98933.09
2022-11-10T00:51:34.499Z,98936.41
2022-11-10T00:53:55.546Z,98943.25
2022-11-10T00:56:15.837Z,98947.38
2022-11-10T00:58:36.987Z,98949.03
2022-11-10T01:01:04.174Z,98952.34
2022-11-10T01:03:24.614Z,98946.28
2022-11-10T01:05:45.057Z,98953.97
2022-11-10T01:08:05.788Z,98951.78
2022-11-10T01:10:28.463Z,98954.22
2022-11-10T01:12:49.036Z,98964.06
2022-11-10T01:15:10.366Z,98966.56
2022-11-10T01:17:30.705Z,98974.25
2022-11-10T01:19:51.058Z,98976.72
2022-11-10T01:22:11.317Z,98973.66
2022-11-10T01:24:32.578Z,98963.78
2022-11-10T01:26:52.685Z,98966.22
2022-11-10T01:29:14.732Z,98972.25
2022-11-10T01:31:46.976Z,98970.31
2022-11-10T01:34:07.514Z,98973.06
2022-11-10T01:36:27.866Z,98975.53
2022-11-10T01:38:48.148Z,98987.31
2022-11-10T01:41:10.090Z,98983.19
2022-11-10T01:43:31.173Z,98991.97
2022-11-10T01:46:06.688Z,99003.72
2022-11-10T01:48:59.146Z,98997.66
2022-11-10T01:51:31.602Z,98993.53
2022-11-10T01:53:58.789Z,99003.94
2022-11-10T01:56:20.956Z,99005.31
2022-11-10T01:58:50.978Z,99014.59
2022-11-10T02:01:11.467Z,99018.97
2022-11-10T02:03:54.056Z,99011.53
2022-11-10T02:06:16.361Z,99023.31
2022-11-10T02:08:36.797Z,99027.41
2022-11-10T02:10:57.137Z,99025.44
2022-11-10T02:13:17.328Z,99027.91
2022-11-10T02:15:38.178Z,99028.69
2022-11-10T02:17:58.440Z,99031.97
2022-11-10T02:20:26.876Z,99036.25
2022-11-10T02:22:47.318Z,99041.72
2022-11-10T02:25:07.984Z,99041.44
2022-11-10T02:27:40.593Z,99042.19
2022-11-10T02:30:01.702Z,99053.13
2022-11-10T02:32:22.588Z,99058.03
2022-11-10T02:34:43.494Z,99058.84
2022-11-10T02:37:04.069Z,99065.66
2022-11-10T02:39:24.128Z,99063.44
2022-11-10T02:41:44.254Z,99076.59
2022-11-10T02:44:13.483Z,99069.16
2022-11-10T02:46:34.064Z,99070.16
2022-11-10T02:48:54.743Z,99071.53
2022-11-10T02:51:14.959Z,99079.19
2022-11-10T02:53:38.269Z,99075.81
2022-11-10T02:55:59.130Z,99074.16
2022-11-10T02:58:19.421Z,99071.38
2022-11-10T03:00:39.462Z,99079.03
2022-11-10T03:03:07.107Z,99077.91
2022-11-10T03:05:31.020Z,99084.13
2022-11-10T03:07:55.906Z,99081.91
2022-11-10T03:10:17.871Z,99095.28
2022-11-10T03:12:38.292Z,99090.59
2022-11-10T03:14:59.833Z,99094.09
2022-11-10T03:17:21.266Z,99096.78
2022-11-10T03:19:41.517Z,99100.03
2022-11-10T03:22:02.130Z,99105.16
2022-11-10T03:24:22.068Z,99112.25
2022-11-10T03:26:49.568Z,99112.19
2022-11-10T03:29:09.755Z,99112.44
2022-11-10T03:31:29.856Z,99116.75
2022-11-10T03:33:50.049Z,99121.91
2022-11-10T03:36:17.656Z,99120.78
2022-11-10T03:38:37.979Z,99120.66
2022-11-10T03:43:39.522Z,99139.41
2022-11-10T03:45:59.675Z,99135.53
2022-11-10T03:48:23.128Z,99129.50
2022-11-10T03:50:46.073Z,99131.06
2022-11-10T03:53:06.412Z,99136.22
2022-11-10T03:55:27.157Z,99137.78
2022-11-10T03:57:54.795Z,99148.41
2022-11-10T04:00:15.313Z,99148.91
2022-11-10T04:02:36.297Z,99151.31
2022-11-10T04:05:15.249Z,99157.28
2022-11-10T04:07:56.644Z,99161.03
2022-11-10T04:10:16.986Z,99170.78
2022-11-10T04:12:55.704Z,99180.31
2022-11-10T04:15:34.629Z,99174.75
2022-11-10T04:17:54.949Z,99178.25
2022-11-10T04:20:15.514Z,99174.94
2022-11-10T04:22:54.407Z,99181.16
2022-11-10T04:25:14.748Z,99173.44
2022-11-10T04:27:34.980Z,99184.88
2022-11-10T04:29:55.202Z,99189.19
2022-11-10T04:32:15.372Z,99190.50
2022-11-10T04:34:38.588Z,99202.75
2022-11-10T04:36:59.074Z,99198.59
2022-11-10T04:39:19.080Z,99196.34
2022-11-10T04:41:39.743Z,99206.94
2022-11-10T04:44:00.721Z,99209.09
2022-11-10T04:46:26.639Z,99206.84
2022-11-10T04:48:49.918Z,99204.00
2022-11-10T04:51:10.193Z,99210.00
2022-11-10T04:53:30.310Z,99208.31
2022-11-10T04:55:50.662Z,99214.84
2022-11-10T04:58:11.728Z,99219.72
2022-11-10T05:00:32.502Z,99222.47
2022-11-10T05:02:52.617Z,99228.41
2022-11-10T05:05:15.884Z,99244.22
2022-11-10T05:07:35.967Z,99255.13
2022-11-10T05:09:56.328Z,99263.22
2022-11-10T05:12:29.985Z,99253.63
2022-11-10T05:14:52.276Z,99252.19
2022-11-10T05:17:12.341Z,99257.09
2022-11-10T05:19:32.579Z,99253.78
2022-11-10T05:21:54.638Z,99257.81
2022-11-10T05:24:15.030Z,99255.31
2022-11-10T05:26:35.105Z,99260.16
2022-11-10T05:29:02.287Z,99268.81
2022-11-10T05:31:22.686Z,99268.22
2022-11-10T05:33:45.197Z,99281.31
2022-11-10T05:36:09.761Z,99275.84
2022-11-10T05:38:29.742Z,99276.31
2022-11-10T05:40:50.240Z,99284.75
2022-11-10T05:43:10.809Z,99293.16
2022-11-10T05:45:31.018Z,99296.38
2022-11-10T05:47:51.612Z,99303.16
2022-11-10T05:50:11.953Z,99309.91
2022-11-10T05:52:32.784Z,99305.28
2022-11-10T05:54:55.498Z,99305.53
2022-11-10T05:57:21.941Z,99316.94
2022-11-10T05:59:42.416Z,99321.56
2022-11-10T06:02:02.758Z,99325.00
2022-11-10T06:04:23.131Z,99326.69
2022-11-10T06:06:46.303Z,99335.09
2022-11-10T06:09:09.157Z,99342.22
2022-11-10T06:11:29.664Z,99344.94
2022-11-10T06:13:50.727Z,99353.34
2022-11-10T06:16:11.336Z,99359.31
2022-11-10T06:18:31.860Z,99355.75
2022-11-10T06:20:57.074Z,99356.22
2022-11-10T06:23:17.387Z,99370.09
2022-11-10T06:25:42.412Z,99376.88
2022-11-10T06:28:06.770Z,99385.06
2022-11-10T06:30:28.213Z,99390.97
2022-11-10T06:32:49.833Z,99399.38
2022-11-10T06:35:11.317Z,99397.34
2022-11-10T06:37:41.135Z,99395.94
2022-11-10T06:40:01.795Z,99408.50
2022-11-10T06:42:22.208Z,99422.16
2022-11-10T06:44:42.691Z,99428.06
2022-11-10T06:47:02.731Z,99419.50
2022-11-10T06:49:22.880Z,99424.16
2022-11-10T06:51:42.860Z,99424.75
2022-11-10T06:54:03.158Z,99432.94
2022-11-10T06:56:26.173Z,99434.84
2022-11-10T06:58:46.580Z,99439.44
2022-11-10T07:01:07.091Z,99451.44
2022-11-10T07:03:28.972Z,99446.59
2022-11-10T07:05:49.448Z,99449.31
2022-11-10T07:08:15.869Z,99457.03
2022-11-10T07:10:37.267Z,99456.78
2022-11-10T07:12:59.345Z,99458.59
2022-11-10T07:15:21.731Z,99477.72
2022-11-10T07:17:43.747Z,99468.81
2022-11-10T07:20:04.519Z,99477.13
2022-11-10T07:22:25.117Z,99477.97
2022-11-10T07:24:46.684Z,99487.34
2022-11-10T07:27:08.280Z,99474.75
2022-11-10T07:29:28.321Z,99486.50
2022-11-10T07:31:50.356Z,99493.28
2022-11-10T07:34:11.096Z,99495.41
2022-11-10T07:36:31.416Z,99505.03
2022-11-10T07:38:52.864Z,99514.19
2022-11-10T07:41:13.393Z,99508.63
2022-11-10T07:43:35.744Z,99511.25
2022-11-10T07:45:56.152Z,99514.72
2022-11-10T07:48:17.043Z,99519.59
2022-11-10T07:50:37.717Z,99533.19
2022-11-10T07:53:10.156Z,99537.72
2022-11-10T07:55:30.501Z,99526.19
2022-11-10T07:58:01.164Z,99539.50
2022-11-10T08:00:21.475Z,99546.31
2022-11-10T08:02:41.802Z,99542.16
2022-11-10T08:05:02.492Z,99547.84
2022-11-10T08:07:25.922Z,99560.91
2022-11-10T08:09:46.346Z,99569.34
2022-11-10T08:12:07.858Z,99561.63
2022-11-10T08:14:28.087Z,99571.97
2022-11-10T08:16:48.612Z,99576.84
2022-11-10T08:19:09.469Z,99583.84
2022-11-10T08:21:30.481Z,99585.16
2022-11-10T08:23:50.635Z,99588.31
2022-11-10T08:26:16.658Z,99596.19
2022-11-10T08:28:38.848Z,99595.84
2022-11-10T08:31:04.273Z,99602.25
2022-11-10T08:33:28.975Z,99599.34
2022-11-10T08:35:51.991Z,99605.03
2022-11-10T08:38:18.648Z,99615.03
2022-11-10T08:40:40.288Z,99609.88
2022-11-10T08:43:02.994Z,99603.44
2022-11-10T08:45:23.331Z,99610.69
2022-11-10T08:47:46.183Z,99611.84
2022-11-10T08:50:08.333Z,99611.69
2022-11-10T08:52:28.561Z,99613.94
2022-11-10T08:54:49.229Z,99622.53
2022-11-10T08:57:10.752Z,99627.75
2022-11-10T08:59:31.395Z,99630.00
2022-11-10T09:01:51.968Z,99629.75
2022-11-10T09:04:20.542Z,99636.06
2022-11-10T09:06:41.902Z,99643.53
2022-11-10T09:09:02.180Z,99650.22
2022-11-10T09:11:22.704Z,99658.28
2022-11-10T09:13:44.055Z,99651.25
2022-11-10T09:16:05.228Z,99653.22
2022-11-10T09:18:26.653Z,99664.53
2022-11-10T09:20:51.669Z,99666.56
2022-11-10T09:23:17.647Z,99679.88
2022-11-10T09:25:38.990Z,99685.44
2022-11-10T09:27:59.229Z,99689.38
2022-11-10T09:30:19.801Z,99697.69
2022-11-10T09:32:40.191Z,99698.63
2022-11-10T09:35:01.255Z,99706.34
2022-11-10T09:37:23.640Z,99708.56
2022-11-10T09:39:44.144Z,99710.00
2022-11-10T09:42:06.887Z,99710.91
2022-11-10T09:44:38.745Z,99711.50
2022-11-10T09:47:56.349Z,99725.56
2022-11-10T09:50:44.647Z,99728.88
2022-11-10T09:53:10.827Z,99731.41
2022-11-10T09:55:43.296Z,99733.63
2022-11-10T09:58:04.472Z,99730.16
2022-11-10T10:00:25.538Z,99729.63
2022-11-10T10:02:58.172Z,99731.03
2022-11-10T10:05:47.466Z,99729.22
2022-11-10T10:08:14.847Z,99736.47
2022-11-10T10:10:47.413Z,99731.28
2022-11-10T10:13:45.653Z,99730.56
2022-11-10T10:16:16.566Z,99731.78
2022-11-10T10:19:13.945Z,99735.19
2022-11-10T10:21:48.287Z,99735.59
2022-11-10T10:24:22.065Z,99734.34
2022-11-10T10:26:52.419Z,99733.06
2022-11-10T10:29:21.268Z,99728.22
2022-11-10T10:31:43.849Z,99727.81
2022-11-10T10:34:05.080Z,99718.56
2022-11-10T10:36:30.661Z,99722.19
2022-11-10T10:39:03.527Z,99725.59
2022-11-10T10:41:30.779Z,99713.31
2022-11-10T10:43:54.878Z,99720.84
2022-11-10T10:46:16.262Z,99710.50
2022-11-10T10:48:36.464Z,99715.53
2022-11-10T10:50:56.751Z,99720.88
2022-11-10T10:53:24.406Z,99721.56
2022-11-10T10:55:53.953Z,99718.94
2022-11-10T10:58:52.940Z,99726.25
2022-11-10T11:01:16.228Z,99719.44
2022-11-10T11:03:45.820Z,99720.31
2022-11-10T11:06:15.125Z,99719.81
2022-11-10T11:08:42.884Z,99722.84
2022-11-10T11:11:10.969Z,99720.97
2022-11-10T11:13:34.440Z,99717.78
2022-11-10T11:16:07.289Z,99714.84
2022-11-10T11:18:30.361Z,99714.97
2022-11-10T11:21:18.404Z,99717.53
2022-11-10T11:24:20.585Z,99706.53
2022-11-10T11:26:46.165Z,99705.72
2022-11-10T11:29:51.066Z,99712.91
2022-11-10T11:32:25.347Z,99717.84
2022-11-10T11:35:13.923Z,99718.69
2022-11-10T11:37:52.061Z,99719.31
2022-11-10T11:40:40.555Z,99712.72
2022-11-10T11:43:28.062Z,99719.13
2022-11-10T11:45:58.507Z,99719.19
2022-11-10T11:48:47.556Z,99727.25
2022-11-10T11:51:20.091Z,99720.13
2022-11-10T11:54:18.485Z,99711.88
2022-11-10T11:56:44.862Z,99714.16
2022-11-10T11:59:17.364Z,99711.66
2022-11-10T12:02:03.919Z,99713.03
2022-11-10T12:04:51.637Z,99712.78
2022-11-10T12:07:20.896Z,99707.75
2022-11-10T12:09:47.109Z,99700.53
2022-11-10T12:12:22.760Z,99701.66
2022-11-10T12:14:58.395Z,99702.44
2022-11-10T12:17:29.617Z,99705.72
2022-11-10T12:20:38.416Z,99712.31
2022-11-10T12:23:43.167Z,99708.41
2022-11-10T12:26:26.478Z,99706.16
2022-11-10T12:28:55.772Z,99709.72
2022-11-10T12:31:21.568Z,99712.47
2022-11-10T12:33:53.519Z,99711.59
2022-11-10T12:36:17.825Z,99724.31
2022-11-10T12:39:00.516Z,99723.47
2022-11-10T12:41:32.930Z,99732.06
2022-11-10T12:44:21.428Z,99720.72
2022-11-10T12:46:49.475Z,99725.94
2022-11-10T12:49:36.578Z,99717.09
2022-11-10T12:52:18.455Z,99734.28
2022-11-10T12:54:42.555Z,99719.91
2022-11-10T12:57:13.614Z,99717.69
2022-11-10T12:59:51.837Z,99720.22
2022-11-10T13:02:18.849Z,99719.41
2022-11-10T13:04:49.779Z,99722.16
2022-11-10T13:07:17.072Z,99729.91
2022-11-10T13:09:40.354Z,99730.72
2022-11-10T13:12:16.942Z,99727.13
2022-11-10T13:14:38.479Z,99719.91
2022-11-10T13:17:01.741Z,99731.53
2022-11-10T13:19:25.203Z,99722.13
2022-11-10T13:21:51.506Z,99727.38
2022-11-10T13:24:19.883Z,99721.59
2022-11-10T13:26:39.848Z,99719.97
2022-11-10T13:29:02.700Z,99722.22
2022-11-10T13:31:55.035Z,99733.03
2022-11-10T13:34:18.695Z,99730.59
2022-11-10T13:36:47.029Z,99731.16
2022-11-10T13:39:45.625Z,99738.94
2022-11-10T13:42:09.265Z,99743.94
2022-11-10T13:44:33.327Z,99744.50
2022-11-10T13:47:10.884Z,99749.47
2022-11-10T13:49:40.425Z,99747.81
2022-11-10T13:52:17.310Z,99757.22
2022-11-10T13:55:09.481Z,99764.72
2022-11-10T13:57:38.923Z,99767.22
2022-11-10T14:00:11.380Z,99767.75
2022-11-10T14:02:34.750Z,99764.13
2022-11-10T14:04:56.745Z,99762.22
2022-11-10T14:07:19.739Z,99772.19
2022-11-10T14:09:48.823Z,99771.06
2022-11-10T14:12:21.639Z,99774.13
2022-11-10T14:15:06.935Z,99769.97
2022-11-10T14:17:45.754Z,99773.00
2022-11-10T14:20:32.811Z,99783.78
2022-11-10T14:22:53.858Z,99781.59
2022-11-10T14:25:39.712Z,99772.75
2022-11-10T14:27:59.891Z,99779.34
2022-11-10T14:30:26.058Z,99777.97
2022-11-10T14:35:51.786Z,99779.91
2022-11-10T14:38:27.384Z,99789.31
2022-11-10T14:40:48.852Z,99794.28
2022-11-10T14:43:30.220Z,99795.66
2022-11-10T14:45:52.905Z,99797.59
2022-11-10T14:48:20.295Z,99800.91
2022-11-10T14:50:58.617Z,99802.00
2022-11-10T14:53:29.292Z,99818.56
2022-11-10T14:55:54.639Z,99820.75
2022-11-10T14:58:34.237Z,99812.47
2022-11-10T15:01:10.647Z,99828.19
2022-11-10T15:03:39.622Z,99830.13
2022-11-10T15:06:24.564Z,99832.84
2022-11-10T15:08:52.835Z,99834.75
2022-11-10T15:11:39.851Z,99842.47
2022-11-10T15:14:00.237Z,99844.91
2022-11-10T15:16:31.781Z,99847.09
2022-11-10T15:18:55.492Z,99839.88
2022-11-10T15:21:21.854Z,99831.84
2022-11-10T15:23:43.884Z,99836.50
2022-11-10T15:26:16.769Z,99837.56
2022-11-10T15:28:49.608Z,99838.66
2022-11-10T15:31:34.612Z,99847.13
2022-11-10T15:34:01.112Z,99849.28
2022-11-10T15:36:32.269Z,99850.63
2022-11-10T15:39:23.261Z,99836.72
2022-11-10T15:41:47.650Z,99840.53
2022-11-10T15:44:23.572Z,99843.81
2022-11-10T15:46:44.774Z,99836.56
2022-11-10T15:49:11.309Z,99839.56
2022-11-10T15:51:34.784Z,99840.88
2022-11-10T15:53:55.022Z,99845.50
2022-11-10T15:56:17.866Z,99856.72
2022-11-10T15:58:37.923Z,99857.78
2022-11-10T16:00:58.508Z,99862.41
2022-11-10T16:03:21.048Z,99870.31
2022-11-10T16:05:41.525Z,99868.59
2022-11-10T16:08:10.507Z,99884.47
2022-11-10T16:10:30.931Z,99880.25
2022-11-10T16:12:51.097Z,99890.41
2022-11-10T16:15:19.830Z,99883.66
2022-11-10T16:17:39.897Z,99890.75
2022-11-10T16:20:00.427Z,99895.63
2022-11-10T16:22:21.057Z,99893.91
2022-11-10T16:24:42.123Z,99889.66
2022-11-10T16:27:05.774Z,99886.00
2022-11-10T16:29:26.827Z,99888.13
2022-11-10T16:31:47.080Z,99883.91
2022-11-10T16:34:12.639Z,99892.34
2022-11-10T16:36:34.324Z,99889.53
2022-11-10T16:38:58.482Z,99881.69
2022-11-10T16:41:19.190Z,99899.19
2022-11-10T16:43:39.826Z,99887.28
2022-11-10T16:46:05.883Z,99894.88
2022-11-10T16:48:32.853Z,99893.38
2022-11-10T16:50:56.012Z,99896.31
2022-11-10T16:53:18.202Z,99900.31
2022-11-10T16:55:38.770Z,99898.53
2022-11-10T16:57:59.352Z,99895.69
2022-11-10T17:00:20.002Z,99905.44
2022-11-10T17:02:41.685Z,99902.81
2022-11-10T17:05:02.229Z,99909.06
2022-11-10T17:07:26.780Z,99920.44
2022-11-10T17:09:47.311Z,99927.75
2022-11-10T17:12:12.693Z,99926.25
2022-11-10T17:14:34.147Z,99927.25
2022-11-10T17:16:56.908Z,99936.44
2022-11-10T17:19:24.090Z,99937.44
2022-11-10T17:21:45.536Z,99941.41
2022-11-10T17:24:06.990Z,99939.38
2022-11-10T17:26:27.970Z,99945.84
2022-11-10T17:28:50.941Z,99938.56
2022-11-10T17:31:13.734Z,99935.16
2022-11-10T17:33:36.664Z,99930.63
2022-11-10T17:35:58.017Z,99938.72
2022-11-10T17:38:24.376Z,99941.34
2022-11-10T17:40:44.839Z,99934.94
2022-11-10T17:43:04.902Z,99936.72
2022-11-10T17:45:27.365Z,99934.94
2022-11-10T17:47:49.086Z,99927.66
2022-11-10T17:50:09.372Z,99941.50
2022-11-10T17:52:29.929Z,99954.03
2022-11-10T17:54:50.329Z,99944.84
2022-11-10T17:57:11.090Z,99937.56
2022-11-10T17:59:31.681Z,99943.75
2022-11-10T18:01:52.589Z,99949.13
2022-11-10T18:04:16.456Z,99950.91
2022-11-10T18:06:36.817Z,99959.59
2022-11-10T18:08:57.485Z,99953.16
2022-11-10T18:11:22.037Z,99947.56
2022-11-10T18:13:43.892Z,99954.81
2022-11-10T18:16:05.000Z,99953.38
2022-11-10T18:18:25.362Z,99963.38
2022-11-10T18:20:45.779Z,99956.91
2022-11-10T18:23:11.190Z,99982.28
2022-11-10T18:25:31.539Z,99976.66
2022-11-10T18:27:52.484Z,99971.06
2022-11-10T18:30:14.539Z,99981.41
2022-11-10T18:32:34.761Z,99975.78
2022-11-10T18:34:55.356Z,99976.50
2022-11-10T18:37:19.164Z,99983.47
2022-11-10T18:39:39.464Z,99977.63
2022-11-10T18:42:00.258Z,99981.03
2022-11-10T18:44:21.188Z,99979.25
2022-11-10T18:46:45.285Z,99983.50
2022-11-10T18:49:05.475Z,99987.53
2022-11-10T18:51:26.147Z,99991.81
2022-11-10T18:53:46.241Z,99998.78
2022-11-10T18:56:09.318Z,100012.09
2022-11-10T18:58:29.707Z,99999.72
2022-11-10T19:00:51.751Z,100001.22
2022-11-10T19:03:14.811Z,100001.06
2022-11-10T19:05:35.452Z,100004.28
2022-11-10T19:07:55.955Z,99999.28
2022-11-10T19:10:19.181Z,100006.47
2022-11-10T19:12:39.427Z,100015.13
2022-11-10T19:15:01.494Z,100013.94
2022-11-10T19:17:22.256Z,100009.75
2022-11-10T19:19:42.896Z,100016.72
2022-11-10T19:22:04.957Z,100018.25
2022-11-10T19:24:28.357Z,100030.72
2022-11-10T19:26:51.686Z,100036.63
2022-11-10T19:29:16.110Z,100027.19
2022-11-10T19:31:36.664Z,100031.22
2022-11-10T19:33:57.709Z,100039.03
2022-11-10T19:36:23.176Z,100042.22
2022-11-10T19:38:47.535Z,100035.53
2022-11-10T19:41:12.468Z,100030.50
2022-11-10T19:43:33.549Z,100030.97
2022-11-10T19:45:53.822Z,100025.94
2022-11-10T19:48:17.312Z,100031.84
2022-11-10T19:50:37.609Z,100049.31
2022-11-10T19:52:58.204Z,100071.84
2022-11-10T19:55:18.552Z,100063.84
2022-11-10T19:57:38.513Z,100070.84
2022-11-10T19:59:58.700Z,100070.22
2022-11-10T20:02:19.125Z,100066.84
2022-11-10T20:04:59.310Z,100064.59
2022-11-10T20:07:58.607Z,100066.69
2022-11-10T20:10:18.567Z,100072.81
2022-11-10T20:12:41.575Z,100066.72
2022-11-10T20:15:01.917Z,100076.19
2022-11-10T20:17:21.977Z,100082.09
2022-11-10T20:19:42.501Z,100084.22
2022-11-10T20:22:02.986Z,100080.88
2022-11-10T20:24:23.122Z,100078.56
2022-11-10T20:26:45.314Z,100072.50
2022-11-10T20:29:05.616Z,100073.78
2022-11-10T20:31:26.303Z,100073.38
2022-11-10T20:33:48.494Z,100069.19
2022-11-10T20:36:18.936Z,100064.16
2022-11-10T20:38:47.133Z,100073.63
2022-11-10T20:41:13.590Z,100062.31
2022-11-10T20:43:38.261Z,100066.31
2022-11-10T20:45:58.829Z,100067.59
2022-11-10T20:48:19.572Z,100073.47
2022-11-10T20:50:40.643Z,100077.69
2022-11-10T20:53:01.907Z,100072.69
2022-11-10T20:55:51.709Z,100077.72
2022-11-10T20:58:03.145Z,100082.78
2022-11-10T21:00:24.202Z,100084.06
2022-11-10T21:02:44.539Z,100075.25
2022-11-10T21:05:05.899Z,100074.63
2022-11-10T21:07:29.700Z,100076.75
2022-11-10T21:09:50.194Z,100071.50
2022-11-10T21:12:31.404Z,100082.88
2022-11-10T21:14:51.835Z,100082.44
2022-11-10T21:17:12.295Z,100083.72
2022-11-10T21:19:34.581Z,100092.13
2022-11-10T21:21:54.579Z,100087.09
2022-11-10T21:24:15.252Z,100079.09
2022-11-10T21:26:35.813Z,100082.06
2022-11-10T21:28:57.528Z,100080.38
2022-11-10T21:31:18.609Z,100084.19
2022-11-10T21:33:38.671Z,100075.56
2022-11-10T21:36:05.250Z,100077.69
2022-11-10T21:38:27.235Z,100076.22
2022-11-10T21:40:47.682Z,100082.72
2022-11-10T21:43:09.080Z,100078.53
2022-11-10T21:45:29.856Z,100084.44
2022-11-10T21:47:52.459Z,100097.66
2022-11-10T21:50:15.165Z,100108.13
2022-11-10T21:52:35.799Z,100108.38
2022-11-10T21:54:56.375Z,100105.03
2022-11-10T21:57:18.941Z,100108.16
2022-11-10T21:59:39.665Z,100118.22
2022-11-10T22:02:00.361Z,100121.19
2022-11-10T22:04:23.386Z,100109.84
2022-11-10T22:07:08.948Z,100112.81
2022-11-10T22:09:49.278Z,100110.28
2022-11-10T22:12:35.095Z,100107.78
2022-11-10T22:15:15.671Z,100110.72
2022-11-10T22:17:54.813Z,100107.34
2022-11-10T22:20:16.245Z,100101.50
2022-11-10T22:22:36.514Z,100105.25
2022-11-10T22:24:57.367Z,100111.78
2022-11-10T22:27:17.493Z,100117.66
2022-11-10T22:29:38.124Z,100109.25
2022-11-10T22:31:59.827Z,100096.69
2022-11-10T22:34:20.969Z,100102.34
2022-11-10T22:36:41.254Z,100103.59
2022-11-10T22:39:03.943Z,100095.84
2022-11-10T22:41:43.953Z,100097.31
2022-11-10T22:44:05.232Z,100098.56
2022-11-10T22:46:28.447Z,100113.25
2022-11-10T22:48:48.467Z,100109.88
2022-11-10T22:51:09.078Z,100102.97
2022-11-10T22:53:30.681Z,100114.91
2022-11-10T22:55:50.865Z,100101.69
2022-11-10T22:58:14.133Z,100104.63
2022-11-10T23:00:34.248Z,100108.63
2022-11-10T23:02:54.727Z,100120.53
2022-11-10T23:05:15.745Z,100111.75
2022-11-10T23:07:36.010Z,100105.69
2022-11-10T23:09:56.164Z,100109.66
2022-11-10T23:12:16.727Z,100109.03
2022-11-10T23:14:37.071Z,100114.47
2022-11-10T23:16:57.440Z,100100.44
2022-11-10T23:19:17.610Z,100097.94
2022-11-10T23:21:37.721Z,100111.97
2022-11-10T23:23:58.344Z,100117.81
2022-11-10T23:26:24.067Z,100123.25
2022-11-10T23:28:47.994Z,100129.13
2022-11-10T23:31:18.065Z,100127.47
2022-11-10T23:33:39.690Z,100126.59
2022-11-10T23:36:00.447Z,100128.72
2022-11-10T23:38:20.594Z,100127.00
2022-11-10T23:40:41.126Z,100126.38
2022-11-10T23:43:01.385Z,100128.28
2022-11-10T23:45:21.510Z,100124.06
2022-11-10T23:47:42.061Z,100124.31
2022-11-10T23:50:03.239Z,100119.66
2022-11-10T23:52:23.523Z,100120.91
2022-11-10T23:54:43.743Z,100127.44
2022-11-10T23:57:04.234Z,100125.09
2022-11-10T23:59:24.386Z,100131.59
